createdAt,value
2017-01-30T11:42:54.505Z,25.54
2017-01-30T11:44:08.559Z,25.53
2017-01-30T11:45:36.481Z,25.56
2017-01-30T11:46:50.411Z,25.49
2017-01-30T11:48:04.792Z,25.59
2017-01-30T11:49:18.099Z,25.66
2017-01-30T11:50:32.805Z,25.64
2017-01-30T11:51:46.935Z,25.72
2017-01-30T11:53:15.052Z,25.71
2017-01-30T11:54:43.362Z,25.76
2017-01-30T11:55:58.243Z,25.82
2017-01-30T11:57:12.981Z,25.81
2017-01-30T11:58:27.082Z,25.83
2017-01-30T11:59:42.121Z,25.91
2017-01-30T12:00:57.014Z,26.09
2017-01-30T12:02:25.005Z,26.01
2017-01-30T12:03:53.579Z,25.91
2017-01-30T12:05:09.146Z,25.97
2017-01-30T12:06:23.262Z,26.04
2017-01-30T12:07:51.194Z,26.17
2017-01-30T12:09:05.462Z,26.28
2017-01-30T12:10:18.505Z,26.27
2017-01-30T12:11:32.700Z,26.46
2017-01-30T12:12:46.859Z,26.54
2017-01-30T12:14:00.402Z,26.64
2017-01-30T12:15:27.707Z,26.66
2017-01-30T12:16:55.630Z,26.86
2017-01-30T12:18:09.860Z,26.9
2017-01-30T12:19:23.374Z,26.91
2017-01-30T12:20:37.678Z,27.03
2017-01-30T12:21:52.069Z,27.13
2017-01-30T12:23:06.264Z,27.16
2017-01-30T12:24:19.786Z,27.3
2017-01-30T12:25:33.994Z,27.45
2017-01-30T12:26:48.121Z,27.46
2017-01-30T12:28:02.316Z,27.58
2017-01-30T12:29:29.730Z,27.59
2017-01-30T12:30:43.959Z,27.76
2017-01-30T12:31:58.100Z,27.83
2017-01-30T12:33:12.256Z,27.84
2017-01-30T12:34:38.990Z,27.93
2017-01-30T12:35:52.813Z,27.93
2017-01-30T12:37:06.034Z,28.03
2017-01-30T12:38:19.248Z,28.17
2017-01-30T12:39:33.071Z,28.23
2017-01-30T12:40:46.296Z,28.43
2017-01-30T12:42:00.143Z,28.67
2017-01-30T12:43:13.367Z,28.94
2017-01-30T12:44:26.583Z,29.05
2017-01-30T12:45:40.780Z,29.44
2017-01-30T12:46:54.614Z,29.42
2017-01-30T12:48:08.458Z,29.21
2017-01-30T12:49:21.703Z,29.37
2017-01-30T12:50:35.542Z,29.33
2017-01-30T12:51:49.009Z,29.49
2017-01-30T12:53:02.242Z,29.64
2017-01-30T12:54:15.505Z,29.95
2017-01-30T12:55:29.335Z,29.7
2017-01-30T12:56:42.308Z,29.84
2017-01-30T12:57:56.146Z,29.88
2017-01-30T12:59:10.011Z,29.88
2017-01-30T13:00:23.937Z,29.86
2017-01-30T13:01:38.060Z,30
2017-01-30T13:03:05.404Z,30.13
2017-01-30T13:04:33.210Z,30.36
2017-01-30T13:05:46.449Z,30.53
2017-01-30T13:06:59.665Z,30.6
2017-01-30T13:08:12.880Z,30.82
2017-01-30T13:09:26.378Z,31.05
2017-01-30T13:10:40.209Z,31.25
2017-01-30T13:11:53.682Z,30.86
2017-01-30T13:13:07.521Z,30.7
2017-01-30T13:14:21.344Z,30.9
2017-01-30T13:15:35.229Z,30.79
2017-01-30T13:16:49.064Z,30.45
2017-01-30T13:18:03.167Z,30.26
2017-01-30T13:20:58.058Z,30.28
2017-01-30T13:22:10.679Z,30.48
2017-01-30T13:23:23.316Z,30.67
2017-01-30T13:24:37.148Z,30.73
2017-01-30T13:25:50.993Z,30.91
2017-01-30T13:27:03.030Z,30.9
2017-01-30T13:28:17.116Z,30.98
2017-01-30T13:29:44.824Z,31.03
2017-01-30T13:30:58.680Z,31.04
2017-01-30T13:32:11.903Z,31.05
2017-01-30T13:33:25.728Z,31.04
2017-01-30T13:34:39.562Z,31.15
2017-01-30T13:36:07.256Z,31.27
2017-01-30T13:37:34.350Z,31.32
2017-01-30T13:38:47.569Z,31.16
2017-01-30T13:40:01.410Z,31.23
2017-01-30T13:41:29.114Z,31.31
2017-01-30T13:42:42.337Z,31.59
2017-01-30T13:43:56.163Z,31.5
2017-01-30T13:45:08.809Z,31.75
2017-01-30T13:46:22.031Z,31.98
2017-01-30T13:47:35.256Z,31.92
2017-01-30T13:48:49.085Z,31.91
2017-01-30T13:50:02.912Z,32.1
2017-01-30T13:51:16.136Z,32.31
2017-01-30T13:52:29.360Z,32.47
2017-01-30T13:53:42.582Z,32.5
2017-01-30T13:54:55.813Z,32.59
2017-01-30T13:56:09.645Z,32.47
2017-01-30T13:57:23.478Z,32.53
2017-01-30T13:58:37.312Z,32.63
2017-01-30T13:59:51.137Z,32.77
2017-01-30T14:01:04.976Z,32.56
2017-01-30T14:02:18.841Z,32.58
2017-01-30T14:03:32.085Z,32.56
2017-01-30T14:04:45.919Z,32.53
2017-01-30T14:05:59.149Z,32.66
2017-01-30T14:07:12.375Z,31.95
2017-01-30T14:08:26.236Z,31.52
2017-01-30T14:09:40.089Z,31.32
2017-01-30T14:10:53.946Z,30.91
2017-01-30T14:12:07.792Z,30.76
2017-01-30T14:13:21.634Z,30.91
2017-01-30T14:14:35.502Z,31.22
2017-01-30T14:15:49.357Z,31.37
2017-01-30T14:17:02.582Z,31.52
2017-01-30T14:18:16.425Z,31.64
2017-01-30T14:19:30.273Z,31.6
2017-01-30T14:20:44.119Z,31.52
2017-01-30T14:21:57.961Z,31.62
2017-01-30T14:23:10.575Z,31.6
2017-01-30T14:24:24.401Z,31.64
2017-01-30T14:25:38.228Z,31.79
2017-01-30T14:26:52.057Z,31.82
2017-01-30T14:28:05.890Z,32.05
2017-01-30T14:29:19.723Z,32.1
2017-01-30T14:30:33.910Z,32.39
2017-01-30T14:31:47.746Z,32.5
2017-01-30T14:33:01.577Z,32.54
2017-01-30T14:34:14.795Z,32.72
2017-01-30T14:35:28.037Z,32.77
2017-01-30T14:36:42.259Z,32.73
2017-01-30T14:37:55.487Z,32.88
2017-01-30T14:39:09.318Z,33.03
2017-01-30T14:40:23.164Z,33.09
2017-01-30T14:41:37.199Z,33.2
2017-01-30T14:42:51.035Z,33.34
2017-01-30T14:44:04.877Z,33.47
2017-01-30T14:45:18.103Z,33.45
2017-01-30T14:46:31.957Z,33.6
2017-01-30T14:47:46.162Z,33.6
2017-01-30T14:49:00.025Z,33.29
2017-01-30T14:50:13.876Z,33.26
2017-01-30T14:51:27.103Z,33.37
2017-01-30T14:52:41.175Z,33.52
2017-01-30T14:54:08.881Z,33.84
2017-01-30T14:55:22.117Z,33.82
2017-01-30T14:56:35.953Z,33.71
2017-01-30T14:57:49.990Z,33.45
2017-01-30T14:59:03.823Z,33.68
2017-01-30T15:00:17.669Z,33.9
2017-01-30T15:01:31.504Z,34.15
2017-01-30T15:02:45.335Z,34.23
2017-01-30T15:03:59.165Z,34.34
2017-01-30T15:05:11.176Z,34.06
2017-01-30T15:06:25.002Z,34.14
2017-01-30T15:07:38.836Z,33.68
2017-01-30T15:08:52.664Z,33.35
2017-01-30T15:10:06.540Z,33.07
2017-01-30T15:11:20.378Z,32.91
2017-01-30T15:12:34.205Z,32.71
2017-01-30T15:13:48.385Z,32.4
2017-01-30T15:15:14.877Z,32.22
2017-01-30T15:16:28.102Z,31.91
2017-01-30T15:17:55.200Z,31.59
2017-01-30T15:19:09.227Z,31.46
2017-01-30T15:20:23.053Z,31.18
2017-01-30T15:21:36.877Z,30.98
2017-01-30T15:22:50.095Z,30.82
2017-01-30T15:24:03.319Z,30.67
2017-01-30T15:25:17.148Z,30.4
2017-01-30T15:26:44.843Z,30.32
2017-01-30T15:28:12.539Z,30.18
2017-01-30T15:29:26.365Z,30.01
2017-01-30T15:30:40.188Z,29.88
2017-01-30T15:32:07.891Z,29.86
2017-01-30T15:33:21.717Z,29.92
2017-01-30T15:34:35.556Z,30.03
2017-01-30T15:35:48.792Z,30.25
2017-01-30T15:37:02.628Z,30.18
2017-01-30T15:38:15.853Z,30.11
2017-01-30T15:39:30.034Z,29.85
2017-01-30T15:40:43.866Z,29.76
2017-01-30T15:41:56.496Z,29.69
2017-01-30T15:43:10.341Z,29.84
2017-01-30T15:44:24.184Z,29.78
2017-01-30T15:45:50.199Z,29.89
2017-01-30T15:47:04.051Z,29.84
2017-01-30T15:48:17.277Z,29.71
2017-01-30T15:49:44.969Z,29.7
2017-01-30T15:50:59.378Z,29.73
2017-01-30T15:52:13.224Z,29.62
2017-01-30T15:53:27.062Z,29.55
2017-01-30T15:54:40.894Z,29.62
2017-01-30T15:55:54.722Z,29.58
2017-01-30T15:57:22.418Z,29.6
2017-01-30T15:58:36.242Z,29.51
2017-01-30T15:59:50.074Z,29.49
2017-01-30T16:01:03.907Z,29.51
2017-01-30T16:02:17.744Z,29.48
2017-01-30T16:03:31.574Z,29.35
2017-01-30T16:04:44.803Z,29.39
2017-01-30T16:05:58.625Z,29.49
2017-01-30T16:07:11.841Z,29.42
2017-01-30T16:08:25.662Z,29.45
2017-01-30T16:09:39.491Z,29.39
2017-01-30T16:10:53.319Z,29.42
2017-01-30T16:12:06.537Z,29.44
2017-01-30T16:13:19.757Z,29.47
2017-01-30T16:14:33.595Z,29.42
2017-01-30T16:16:01.486Z,29.52
2017-01-30T16:17:14.110Z,29.41
2017-01-30T16:18:27.937Z,29.42
2017-01-30T16:19:41.785Z,29.52
2017-01-30T16:20:55.968Z,29.51
2017-01-30T16:22:09.794Z,29.51
2017-01-30T16:23:23.014Z,29.44
2017-01-30T16:24:36.839Z,29.39
2017-01-30T16:25:50.676Z,29.41
2017-01-30T16:27:04.092Z,29.33
2017-01-30T16:28:17.920Z,29.23
2017-01-30T16:29:31.742Z,29.12
2017-01-30T16:30:45.587Z,29.07
2017-01-30T16:31:59.406Z,28.95
2017-01-30T16:33:13.227Z,28.98
2017-01-30T16:34:26.470Z,29.03
2017-01-30T16:35:40.292Z,28.77
2017-01-30T16:36:53.510Z,28.69
2017-01-30T16:38:21.205Z,28.74
2017-01-30T16:39:35.030Z,28.69
2017-01-30T16:40:47.666Z,28.61
2017-01-30T16:43:43.069Z,28.67
2017-01-30T16:44:56.928Z,28.5
2017-01-30T16:46:10.145Z,28.65
2017-01-30T16:47:24.206Z,28.5
2017-01-30T16:48:38.386Z,28.55
2017-01-30T16:50:06.085Z,28.36
2017-01-30T16:51:19.914Z,28.4
2017-01-30T16:52:47.605Z,28.33
2017-01-30T16:54:01.028Z,28.38
2017-01-30T16:55:14.253Z,28.24
2017-01-30T16:56:28.095Z,28.27
2017-01-30T16:57:41.937Z,28.25
2017-01-30T16:58:54.553Z,28.2
2017-01-30T17:00:07.780Z,28.18
2017-01-30T17:01:20.997Z,28.15
2017-01-30T17:02:34.832Z,28.15
2017-01-30T17:03:48.654Z,28.09
2017-01-30T17:05:02.491Z,28.21
2017-01-30T17:06:15.713Z,28.15
2017-01-30T17:07:28.932Z,28.17
2017-01-30T17:08:42.159Z,28.2
2017-01-30T17:09:55.988Z,28.09
2017-01-30T17:11:09.806Z,28.01
2017-01-30T17:12:23.027Z,27.96
2017-01-30T17:13:36.847Z,27.96
2017-01-30T17:15:04.543Z,27.95
2017-01-30T17:16:17.763Z,27.93
2017-01-30T17:17:31.606Z,27.96
2017-01-30T17:18:59.298Z,27.91
2017-01-30T17:20:13.121Z,27.81
2017-01-30T17:21:26.939Z,27.72
2017-01-30T17:22:54.634Z,27.63
2017-01-30T17:24:08.453Z,27.63
2017-01-30T17:25:22.484Z,27.63
2017-01-30T17:26:36.309Z,27.53
2017-01-30T17:27:49.526Z,27.38
2017-01-30T17:29:02.745Z,27.28
2017-01-30T17:30:16.579Z,27.08
2017-01-30T17:31:30.408Z,26.97
2017-01-30T17:32:44.228Z,26.93
2017-01-30T17:33:58.053Z,26.81
2017-01-30T17:35:11.275Z,26.76
2017-01-30T17:36:25.349Z,26.66
2017-01-30T17:37:39.172Z,26.75
2017-01-30T17:38:52.989Z,26.66
2017-01-30T17:40:06.816Z,26.68
2017-01-30T17:41:34.152Z,26.6
2017-01-30T17:42:47.976Z,26.75
2017-01-30T17:44:01.797Z,26.65
2017-01-30T17:45:15.628Z,26.54
2017-01-30T17:46:29.452Z,26.51
2017-01-30T17:47:43.275Z,26.56
2017-01-30T17:48:56.506Z,26.39
2017-01-30T17:50:10.380Z,26.42
2017-01-30T17:51:23.597Z,26.39
2017-01-30T17:52:37.418Z,26.35
2017-01-30T17:53:50.641Z,26.11
2017-01-30T17:55:04.472Z,25.94
2017-01-30T17:56:17.707Z,25.89
2017-01-30T17:57:31.527Z,25.98
2017-01-30T17:58:44.744Z,25.98
2017-01-30T17:59:58.567Z,25.97
2017-01-30T18:01:12.389Z,25.97
2017-01-30T18:02:25.614Z,25.9
2017-01-30T18:03:39.442Z,25.89
2017-01-30T18:04:52.657Z,25.86
2017-01-30T18:06:20.352Z,25.86
2017-01-30T18:08:01.914Z,25.81
2017-01-30T18:09:15.126Z,25.82
2017-01-30T18:10:28.947Z,25.78
2017-01-30T18:11:42.188Z,25.89
2017-01-30T18:12:55.406Z,25.85
2017-01-30T18:14:09.234Z,25.83
2017-01-30T18:15:22.461Z,25.74
2017-01-30T18:16:36.288Z,25.63
2017-01-30T18:17:50.112Z,25.56
2017-01-30T18:19:03.943Z,25.56
2017-01-30T18:20:17.970Z,25.56
2017-01-30T18:21:31.207Z,25.6
2017-01-30T18:22:44.421Z,25.59
2017-01-30T18:23:58.244Z,25.49
2017-01-30T18:25:12.071Z,25.39
2017-01-30T18:26:25.895Z,25.41
2017-01-30T18:27:39.734Z,25.38
2017-01-30T18:28:52.990Z,25.3
2017-01-30T18:30:06.202Z,25.34
2017-01-30T18:31:19.427Z,25.29
2017-01-30T18:34:00.939Z,25.23
2017-01-30T18:35:28.629Z,25.41
2017-01-30T18:36:42.453Z,25.36
2017-01-30T18:37:56.307Z,25.44
2017-01-30T18:39:09.569Z,25.34
2017-01-30T18:40:23.403Z,25.44
2017-01-30T18:41:51.143Z,25.36
2017-01-30T18:43:04.415Z,25.41
2017-01-30T18:44:18.265Z,25.49
2017-01-30T18:45:31.494Z,25.35
2017-01-30T18:46:44.717Z,25.42
2017-01-30T18:47:58.543Z,25.41
2017-01-30T18:49:12.389Z,25.31
2017-01-30T18:50:26.206Z,25.35
2017-01-30T18:51:40.025Z,25.39
2017-01-30T18:52:53.239Z,25.42
2017-01-30T18:55:34.144Z,25.39
2017-01-30T18:56:47.355Z,25.35
2017-01-30T18:58:01.427Z,25.41
2017-01-30T18:59:15.251Z,25.44
2017-01-30T19:00:29.070Z,25.45
2017-01-30T19:01:42.893Z,25.38
2017-01-30T19:02:56.963Z,25.44
2017-01-30T19:04:24.657Z,25.39
2017-01-30T19:05:38.478Z,25.36
2017-01-30T19:06:52.303Z,25.38
2017-01-30T19:08:19.997Z,25.38
2017-01-30T19:09:33.822Z,25.39
2017-01-30T19:10:47.640Z,25.35
2017-01-30T19:12:00.855Z,25.41
2017-01-30T19:13:14.073Z,25.39
2017-01-30T19:14:27.288Z,25.31
2017-01-30T19:15:41.106Z,25.23
2017-01-30T19:16:54.925Z,25.08
2017-01-30T19:18:07.538Z,25.19
2017-01-30T19:19:20.751Z,25.11
2017-01-30T19:20:34.575Z,25.22
2017-01-30T19:21:48.402Z,25.08
2017-01-30T19:23:02.229Z,24.99
2017-01-30T19:24:16.050Z,24.92
2017-01-30T19:25:28.658Z,24.94
2017-01-30T19:26:41.891Z,24.97
2017-01-30T19:27:55.730Z,25.01
2017-01-30T19:29:23.426Z,24.98
2017-01-30T19:30:37.244Z,24.99
2017-01-30T19:31:51.067Z,25.11
2017-01-30T19:33:04.886Z,25.11
2017-01-30T19:34:32.570Z,25.12
2017-01-30T19:35:46.395Z,25.14
2017-01-30T19:37:00.213Z,25.11
2017-01-30T19:38:13.431Z,25.14
2017-01-30T19:39:27.247Z,25.17
2017-01-30T19:40:54.937Z,25.09
2017-01-30T19:42:08.759Z,25.09
2017-01-30T19:43:22.579Z,25.24
2017-01-30T19:44:36.404Z,25.14
2017-01-30T19:45:49.010Z,25.14
2017-01-30T19:47:02.831Z,25.19
2017-01-30T19:48:15.436Z,25.24
2017-01-30T19:49:29.252Z,25.26
2017-01-30T19:50:43.316Z,25.14
2017-01-30T19:51:56.532Z,25.08
2017-01-30T19:53:10.354Z,25.14
2017-01-30T19:54:23.568Z,25.19
2017-01-30T19:55:37.392Z,25.23
2017-01-30T19:56:50.607Z,25.26
2017-01-30T19:58:04.431Z,25.31
2017-01-30T19:59:18.246Z,25.29
2017-01-30T20:00:32.061Z,25.29
2017-01-30T20:01:59.747Z,25.48
2017-01-30T20:03:12.967Z,25.45
2017-01-30T20:04:26.788Z,25.57
2017-01-30T20:05:40.612Z,25.6
2017-01-30T20:06:54.439Z,25.67
2017-01-30T20:08:07.659Z,25.67
2017-01-30T20:09:21.478Z,25.75
2017-01-30T20:10:34.699Z,25.76
2017-01-30T20:11:48.538Z,25.9
2017-01-30T20:13:02.615Z,25.94
2017-01-30T20:14:16.449Z,25.98
2017-01-30T20:15:44.154Z,25.93
2017-01-30T20:16:57.375Z,25.97
2017-01-30T20:18:25.066Z,25.98
2017-01-30T20:19:38.887Z,25.9
2017-01-30T20:20:52.711Z,25.91
2017-01-30T20:22:20.401Z,25.93
2017-01-30T20:23:34.472Z,25.91
2017-01-30T20:24:48.300Z,25.89
2017-01-30T20:26:00.905Z,25.97
2017-01-30T20:27:13.514Z,26.01
2017-01-30T20:28:27.384Z,25.91
2017-01-30T20:29:41.403Z,25.98
2017-01-30T20:30:55.231Z,26
2017-01-30T20:32:09.052Z,26.08
2017-01-30T20:33:22.873Z,25.93
2017-01-30T20:34:36.088Z,25.97
2017-01-30T20:35:49.909Z,26.03
2017-01-30T20:38:31.420Z,26.06
2017-01-30T20:39:45.242Z,26.03
2017-01-30T20:40:58.456Z,26.03
2017-01-30T20:42:12.286Z,25.91
2017-01-30T20:43:25.508Z,25.89
2017-01-30T20:44:53.219Z,25.97
2017-01-30T20:46:20.910Z,25.97
2017-01-30T20:47:34.753Z,25.9
2017-01-30T20:48:47.973Z,25.48
2017-01-30T20:50:01.801Z,25.29
2017-01-30T20:51:15.649Z,25.22
2017-01-30T20:52:29.482Z,25.31
2017-01-30T20:53:43.331Z,25.34
2017-01-30T20:54:57.364Z,25.24
2017-01-30T20:56:25.067Z,25.3
2017-01-30T20:57:38.911Z,25.34
2017-01-30T20:58:52.748Z,25.36
2017-01-30T21:00:06.590Z,25.26
2017-01-30T21:01:19.826Z,25.29
2017-01-30T21:02:33.677Z,25.05
2017-01-30T21:03:47.729Z,25.11
2017-01-30T21:05:01.559Z,24.98
2017-01-30T21:06:14.781Z,24.9
2017-01-30T21:07:28.007Z,24.9
2017-01-30T21:08:41.823Z,24.92
2017-01-30T21:09:55.648Z,24.92
2017-01-30T21:11:09.726Z,24.98
2017-01-30T21:12:23.548Z,24.9
2017-01-30T21:13:37.370Z,24.99
2017-01-30T21:14:51.190Z,24.97
2017-01-30T21:16:05.214Z,25.04
2017-01-30T21:17:18.434Z,24.93
2017-01-30T21:18:32.250Z,25.04
2017-01-30T21:19:46.077Z,24.9
2017-01-30T21:20:59.894Z,24.83
2017-01-30T21:22:13.720Z,24.89
2017-01-30T21:23:41.415Z,24.89
2017-01-30T21:24:55.233Z,24.74
2017-01-30T21:26:09.063Z,24.7
2017-01-30T21:27:36.753Z,24.66
2017-01-30T21:28:50.572Z,24.74
2017-01-30T21:30:03.785Z,24.7
2017-01-30T21:31:17.604Z,24.67
2017-01-30T21:32:31.418Z,24.63
2017-01-30T21:33:44.627Z,24.63
2017-01-30T21:34:58.448Z,24.64
2017-01-30T21:36:12.521Z,24.68
2017-01-30T21:37:25.734Z,24.7
2017-01-30T21:38:38.952Z,24.67
2017-01-30T21:39:52.162Z,24.7
2017-01-30T21:41:05.376Z,24.63
2017-01-30T21:42:19.205Z,24.64
2017-01-30T21:43:32.419Z,24.64
2017-01-30T21:44:46.238Z,24.63
2017-01-30T21:46:00.060Z,24.53
2017-01-30T21:47:13.272Z,24.61
2017-01-30T21:48:27.288Z,24.49
2017-01-30T21:49:41.105Z,24.61
2017-01-30T21:50:54.926Z,24.55
2017-01-30T21:52:08.746Z,24.56
2017-01-30T21:53:22.570Z,24.51
2017-01-30T21:54:36.389Z,24.46
2017-01-30T21:55:49.608Z,24.46
2017-01-30T21:57:03.455Z,24.44
2017-01-30T21:58:17.276Z,24.51
2017-01-30T21:59:31.091Z,24.44
2017-01-30T22:00:44.908Z,24.44
2017-01-30T22:01:58.721Z,24.56
2017-01-30T22:03:12.539Z,24.51
2017-01-30T22:04:26.553Z,24.56
2017-01-30T22:05:54.241Z,24.49
2017-01-30T22:07:08.059Z,24.55
2017-01-30T22:08:21.273Z,24.55
2017-01-30T22:09:34.486Z,24.55
2017-01-30T22:10:48.302Z,24.48
2017-01-30T22:12:02.125Z,24.39
2017-01-30T22:13:14.733Z,24.45
2017-01-30T22:14:28.547Z,24.42
2017-01-30T22:15:41.758Z,24.44
2017-01-30T22:16:55.580Z,24.45
2017-01-30T22:18:09.436Z,24.42
2017-01-30T22:19:23.506Z,24.44
2017-01-30T22:20:37.322Z,24.37
2017-01-30T22:21:51.145Z,24.41
2017-01-30T22:23:04.969Z,24.27
2017-01-30T22:24:18.192Z,24.29
2017-01-30T22:25:59.754Z,24.3
2017-01-30T22:27:12.972Z,24.36
2017-01-30T22:28:26.789Z,24.36
2017-01-30T22:29:39.999Z,24.3
2017-01-30T22:30:53.815Z,24.18
2017-01-30T22:32:07.635Z,24.18
2017-01-30T22:33:19.023Z,24.27
2017-01-30T22:34:32.239Z,24.23
2017-01-30T22:35:46.055Z,24.29
2017-01-30T22:36:59.878Z,24.26
2017-01-30T22:38:13.702Z,24.26
2017-01-30T22:39:27.522Z,24.26
2017-01-30T22:40:41.690Z,24.21
2017-01-30T22:41:55.515Z,24.19
2017-01-30T22:43:08.731Z,24.27
2017-01-30T22:44:22.546Z,24.27
2017-01-30T22:45:36.378Z,24.33
2017-01-30T22:46:50.216Z,24.34
2017-01-30T22:48:04.041Z,24.37
2017-01-30T22:49:31.122Z,24.29
2017-01-30T22:50:45.168Z,24.37
2017-01-30T22:51:59.006Z,24.31
2017-01-30T22:53:12.839Z,24.31
2017-01-30T22:54:26.071Z,24.33
2017-01-30T22:55:40.152Z,24.39
2017-01-30T22:56:54.010Z,24.33
2017-01-30T22:58:07.841Z,24.34
2017-01-30T22:59:21.675Z,24.33
2017-01-30T23:00:35.497Z,24.41
2017-01-30T23:01:49.318Z,24.37
2017-01-30T23:03:03.135Z,24.42
2017-01-30T23:04:16.958Z,24.42
2017-01-30T23:05:30.780Z,24.44
2017-01-30T23:06:44.596Z,24.33
2017-01-30T23:07:58.414Z,24.49
2017-01-30T23:09:12.232Z,24.45
2017-01-30T23:10:26.056Z,24.46
2017-01-30T23:11:39.875Z,24.49
2017-01-30T23:12:53.692Z,24.46
2017-01-30T23:14:07.516Z,24.49
2017-01-30T23:15:20.730Z,24.56
2017-01-30T23:16:34.546Z,24.49
2017-01-30T23:17:48.372Z,24.48
2017-01-30T23:19:02.192Z,24.53
2017-01-30T23:20:16.010Z,24.53
2017-01-30T23:21:29.836Z,24.55
2017-01-30T23:22:43.652Z,24.56
2017-01-30T23:23:57.477Z,24.61
2017-01-30T23:25:11.294Z,24.53
2017-01-30T23:26:25.106Z,24.49
2017-01-30T23:27:39.129Z,24.48
2017-01-30T23:28:52.947Z,24.56
2017-01-30T23:30:06.162Z,24.45
2017-01-30T23:31:19.985Z,24.51
2017-01-30T23:32:33.807Z,24.42
2017-01-30T23:33:47.640Z,24.48
2017-01-30T23:35:01.457Z,24.37
2017-01-30T23:36:14.677Z,24.41
2017-01-30T23:37:28.494Z,24.34
2017-01-30T23:38:41.908Z,24.36
2017-01-30T23:39:55.738Z,24.29
2017-01-30T23:41:09.559Z,24.29
2017-01-30T23:42:23.372Z,24.3
2017-01-30T23:43:37.190Z,24.29
2017-01-30T23:44:51.011Z,24.24
2017-01-30T23:47:32.522Z,24.26
2017-01-30T23:48:46.589Z,24.15
2017-01-30T23:50:00.418Z,24.24
2017-01-30T23:51:13.026Z,24.3
2017-01-30T23:52:26.846Z,24.27
2017-01-30T23:53:40.663Z,24.3
2017-01-30T23:54:54.482Z,24.33
2017-01-30T23:56:08.297Z,24.37
2017-01-30T23:57:22.116Z,24.29
2017-01-30T23:58:35.941Z,24.36
2017-01-30T23:59:49.767Z,24.31
